Time;durP1;ratioP1;P1;durP2;ratioP2;P2;SDS_P1;SDS_P2;PMS_P1;PMS_P2;Temp;Humidity;BMP_temperature;BMP_pressure;BME280_temperature;BME280_humidity;BME280_pressure;Samples;Min_cycle;Max_cycle;Signal;HPM_P1;HPM_P2
2023/05/08 00:01:05;;;;;;;0.70;0.70;;;;;;;;;;5074910;28;20205;-88
2023/05/08 00:03:33;;;;;;;2.20;1.97;;;;;;;;;;5073879;28;20224;-88
2023/05/08 00:06:04;;;;;;;1.63;1.63;;;;;;;;;;5073569;28;20222;-88
2023/05/08 00:08:33;;;;;;;2.77;2.57;;;;;;;;;;5074285;28;20290;-88
2023/05/08 00:11:01;;;;;;;12.07;9.00;;;;;;;;;;5073929;28;20295;-88
2023/05/08 00:13:31;;;;;;;1.77;1.77;;;;;;;;;;5073199;28;20234;-88
2023/05/08 00:16:00;;;;;;;2.87;2.77;;;;;;;;;;5073824;28;20314;-87
2023/05/08 00:18:29;;;;;;;2.47;2.37;;;;;;;;;;5073591;28;20300;-88
2023/05/08 00:20:57;;;;;;;0.70;0.70;;;;;;;;;;5073400;28;20203;-88
2023/05/08 00:23:26;;;;;;;1.17;1.17;;;;;;;;;;5073375;28;20262;-89
2023/05/08 00:25:55;;;;;;;1.70;1.67;;;;;;;;;;5074079;28;20322;-88
2023/05/08 00:28:23;;;;;;;1.93;1.83;;;;;;;;;;5073117;28;20220;-88
2023/05/08 00:30:53;;;;;;;1.67;1.63;;;;;;;;;;5072963;28;20196;-88
2023/05/08 00:33:21;;;;;;;1.33;1.33;;;;;;;;;;5073442;28;20295;-88
2023/05/08 00:35:50;;;;;;;3.77;3.43;;;;;;;;;;5073064;28;20209;-88
2023/05/08 00:38:18;;;;;;;0.83;0.83;;;;;;;;;;5073806;28;20229;-91
2023/05/08 00:40:47;;;;;;;0.60;0.60;;;;;;;;;;5075089;28;20202;-91
2023/05/08 00:43:16;;;;;;;0.60;0.60;;;;;;;;;;5074512;28;20249;-88
2023/05/08 00:45:46;;;;;;;1.30;1.20;;;;;;;;;;5072863;28;20200;-89
2023/05/08 00:48:16;;;;;;;6.13;4.67;;;;;;;;;;5073322;28;20214;-88
2023/05/08 00:50:44;;;;;;;2.17;1.97;;;;;;;;;;5072928;28;20321;-89
2023/05/08 00:53:13;;;;;;;2.67;2.57;;;;;;;;;;5072552;28;20230;-88
2023/05/08 00:55:41;;;;;;;3.10;2.93;;;;;;;;;;5072649;28;20226;-88
2023/05/08 00:58:10;;;;;;;5.47;5.07;;;;;;;;;;5072932;28;20222;-89
2023/05/08 01:00:40;;;;;;;6.80;5.57;;;;;;;;;;5072593;28;20203;-88
2023/05/08 01:03:09;;;;;;;3.50;3.20;;;;;;;;;;5072813;28;20229;-88
2023/05/08 01:05:39;;;;;;;4.03;3.67;;;;;;;;;;5072495;28;20301;-88
2023/05/08 01:08:08;;;;;;;3.40;3.30;;;;;;;;;;5072398;28;20218;-88
2023/05/08 01:10:43;;;;;;;3.10;2.93;;;;;;;;;;5072614;28;20204;-88
2023/05/08 01:13:15;;;;;;;17.73;14.40;;;;;;;;;;5072865;28;20208;-88
2023/05/08 01:15:48;;;;;;;7.77;6.97;;;;;;;;;;5072616;28;20259;-88
2023/05/08 01:18:20;;;;;;;4.93;3.30;;;;;;;;;;5072653;28;20241;-89
2023/05/08 01:20:54;;;;;;;3.47;3.17;;;;;;;;;;5072707;28;20198;-89
2023/05/08 01:23:44;;;;;;;1.70;1.63;;;;;;;;;;5072101;28;20210;-91
2023/05/08 01:26:40;;;;;;;1.03;1.03;;;;;;;;;;5071963;28;20207;-88
2023/05/08 01:29:29;;;;;;;0.97;0.97;;;;;;;;;;5072639;28;20208;-88
2023/05/08 01:32:13;;;;;;;0.50;0.50;;;;;;;;;;5071990;28;20203;-88
2023/05/08 01:34:45;;;;;;;2.27;2.17;;;;;;;;;;5071955;28;20210;-88
2023/05/08 01:37:16;;;;;;;4.33;3.17;;;;;;;;;;5072296;28;20242;-87
2023/05/08 01:39:46;;;;;;;3.40;3.20;;;;;;;;;;5071953;28;20199;-88
2023/05/08 01:42:20;;;;;;;3.20;3.03;;;;;;;;;;5071905;28;20285;-89
2023/05/08 01:44:52;;;;;;;2.70;2.60;;;;;;;;;;5071895;28;20210;-89
2023/05/08 01:47:24;;;;;;;4.33;2.77;;;;;;;;;;5071675;28;20210;-88
2023/05/08 01:49:57;;;;;;;1.60;1.10;;;;;;;;;;5071725;28;20209;-88
2023/05/08 01:52:32;;;;;;;5.07;4.50;;;;;;;;;;5072001;28;20206;-88
2023/05/08 01:55:04;;;;;;;3.07;2.87;;;;;;;;;;5072078;28;20206;-88
2023/05/08 01:57:35;;;;;;;2.20;2.10;;;;;;;;;;5071974;28;20206;-88
2023/05/08 02:00:06;;;;;;;8.20;6.17;;;;;;;;;;5072192;28;20194;-88
2023/05/08 02:02:36;;;;;;;5.27;4.40;;;;;;;;;;5071287;28;20202;-88
2023/05/08 02:05:07;;;;;;;5.00;2.53;;;;;;;;;;5071502;28;20206;-91
2023/05/08 02:07:37;;;;;;;2.97;2.77;;;;;;;;;;5072540;28;20229;-91
2023/05/08 02:10:07;;;;;;;0.97;0.97;;;;;;;;;;5073530;28;20266;-91
2023/05/08 02:12:36;;;;;;;8.77;8.03;;;;;;;;;;5073101;28;20257;-91
2023/05/08 02:15:06;;;;;;;41.47;19.27;;;;;;;;;;5072486;28;20322;-91
2023/05/08 02:17:37;;;;;;;59.33;25.77;;;;;;;;;;5072871;28;20263;-91
2023/05/08 02:20:13;;;;;;;3.37;3.13;;;;;;;;;;5072071;28;20288;-91
2023/05/08 02:22:43;;;;;;;4.50;4.10;;;;;;;;;;5073133;28;20213;-91
2023/05/08 02:25:13;;;;;;;2.50;2.40;;;;;;;;;;5072757;28;20233;-91
2023/05/08 02:27:44;;;;;;;4.77;4.30;;;;;;;;;;5071405;28;20230;-91
2023/05/08 02:30:14;;;;;;;0.83;0.83;;;;;;;;;;5072408;28;20284;-91
2023/05/08 02:32:43;;;;;;;1.43;1.33;;;;;;;;;;5072693;28;20213;-91
2023/05/08 02:35:15;;;;;;;12.07;11.03;;;;;;;;;;5072266;28;20197;-91
2023/05/08 02:37:44;;;;;;;2.03;1.93;;;;;;;;;;5072399;28;20226;-91
2023/05/08 02:40:14;;;;;;;5.50;4.87;;;;;;;;;;5072089;28;20209;-89
2023/05/08 02:42:43;;;;;;;3.07;2.87;;;;;;;;;;5071465;28;20198;-88
2023/05/08 02:45:12;;;;;;;2.43;2.33;;;;;;;;;;5071043;28;20293;-88
2023/05/08 02:47:44;;;;;;;3.93;3.63;;;;;;;;;;5070921;28;20226;-89
2023/05/08 02:50:18;;;;;;;3.67;2.77;;;;;;;;;;5071007;28;20350;-89
2023/05/08 02:52:49;;;;;;;2.80;2.67;;;;;;;;;;5070929;28;20201;-88
2023/05/08 02:55:23;;;;;;;0.87;0.87;;;;;;;;;;5071515;28;20270;-88
2023/05/08 02:57:57;;;;;;;0.53;0.53;;;;;;;;;;5070834;28;20199;-89
2023/05/08 03:00:32;;;;;;;5.70;5.40;;;;;;;;;;5070919;28;20269;-88
2023/05/08 03:03:01;;;;;;;0.63;0.63;;;;;;;;;;5072067;28;20303;-91
2023/05/08 03:05:33;;;;;;;1.17;1.17;;;;;;;;;;5072662;28;20228;-91
2023/05/08 03:08:05;;;;;;;2.00;1.80;;;;;;;;;;5072073;28;20238;-91
2023/05/08 03:10:35;;;;;;;14.47;6.90;;;;;;;;;;5072821;28;20204;-91
2023/05/08 03:13:05;;;;;;;5.43;4.93;;;;;;;;;;5072539;28;20233;-91
2023/05/08 03:15:36;;;;;;;3.50;3.30;;;;;;;;;;5074425;28;20198;-91
2023/05/08 03:18:08;;;;;;;2.93;2.73;;;;;;;;;;5075904;28;20195;-91
2023/05/08 03:20:40;;;;;;;4.60;4.13;;;;;;;;;;5076088;28;20288;-91
2023/05/08 03:23:10;;;;;;;7.20;5.27;;;;;;;;;;5075871;28;20197;-91
2023/05/08 03:25:40;;;;;;;3.13;1.70;;;;;;;;;;5076092;28;20202;-92
2023/05/08 03:28:09;;;;;;;8.17;7.37;;;;;;;;;;5076317;28;20230;-92
2023/05/08 03:30:38;;;;;;;8.17;7.33;;;;;;;;;;5076172;28;20196;-91
2023/05/08 03:33:07;;;;;;;5.23;4.50;;;;;;;;;;5076266;28;20243;-91
2023/05/08 03:35:36;;;;;;;4.20;4.00;;;;;;;;;;5075545;28;20268;-91
2023/05/08 03:38:07;;;;;;;3.30;3.10;;;;;;;;;;5075530;28;20250;-91
2023/05/08 03:40:37;;;;;;;1.30;1.30;;;;;;;;;;5075940;28;20198;-92
2023/05/08 03:43:07;;;;;;;2.00;2.00;;;;;;;;;;5076315;28;20199;-91
2023/05/08 03:45:36;;;;;;;6.43;5.90;;;;;;;;;;5075486;28;20206;-92
2023/05/08 03:48:05;;;;;;;7.20;6.50;;;;;;;;;;5076026;28;20229;-91
2023/05/08 03:50:35;;;;;;;4.63;3.53;;;;;;;;;;5074025;28;20201;-88
2023/05/08 03:53:04;;;;;;;3.07;2.97;;;;;;;;;;5074420;28;20211;-88
2023/05/08 03:55:34;;;;;;;5.80;5.43;;;;;;;;;;5073779;28;20202;-89
2023/05/08 03:58:06;;;;;;;7.67;7.07;;;;;;;;;;5073951;28;20198;-88
2023/05/08 04:00:39;;;;;;;2.87;2.67;;;;;;;;;;5073846;28;20225;-89
2023/05/08 04:03:14;;;;;;;2.50;2.40;;;;;;;;;;5073960;28;20257;-91
2023/05/08 04:05:48;;;;;;;3.07;2.93;;;;;;;;;;5075959;28;20194;-92
2023/05/08 04:08:17;;;;;;;3.03;2.93;;;;;;;;;;5074854;28;20237;-91
2023/05/08 04:10:51;;;;;;;4.67;3.47;;;;;;;;;;5075188;28;20211;-91
2023/05/08 04:13:21;;;;;;;10.50;5.40;;;;;;;;;;5074991;28;20253;-91
2023/05/08 04:15:55;;;;;;;1.70;1.67;;;;;;;;;;5075586;28;20207;-91
2023/05/08 04:18:26;;;;;;;3.63;3.33;;;;;;;;;;5074727;28;20231;-91
2023/05/08 04:20:55;;;;;;;4.57;4.20;;;;;;;;;;5075396;28;20198;-91
2023/05/08 04:23:24;;;;;;;3.23;3.13;;;;;;;;;;5074762;28;20195;-91
2023/05/08 04:25:54;;;;;;;9.07;7.93;;;;;;;;;;5074422;28;20275;-91
2023/05/08 04:28:23;;;;;;;5.93;5.13;;;;;;;;;;5074603;28;20275;-91
2023/05/08 04:30:54;;;;;;;3.63;3.40;;;;;;;;;;5074434;28;20189;-92
2023/05/08 04:33:23;;;;;;;3.77;2.67;;;;;;;;;;5074367;28;20201;-91
2023/05/08 04:35:51;;;;;;;3.30;1.80;;;;;;;;;;5074414;28;20206;-92
2023/05/08 04:38:20;;;;;;;3.77;3.17;;;;;;;;;;5074743;28;20198;-92
2023/05/08 04:40:48;;;;;;;2.37;2.27;;;;;;;;;;5074412;28;20195;-92
2023/05/08 04:43:18;;;;;;;5.33;4.90;;;;;;;;;;5075328;28;20202;-91
2023/05/08 04:45:47;;;;;;;4.23;3.83;;;;;;;;;;5075708;28;20240;-91
2023/05/08 04:48:15;;;;;;;114.60;19.17;;;;;;;;;;5074897;28;20224;-90
2023/05/08 04:50:44;;;;;;;82.03;12.63;;;;;;;;;;5075383;28;20202;-91
2023/05/08 04:53:12;;;;;;;45.03;11.97;;;;;;;;;;5075768;28;20210;-90
2023/05/08 04:55:41;;;;;;;4.97;2.93;;;;;;;;;;5075506;28;20264;-90
2023/05/08 04:58:11;;;;;;;10.77;3.57;;;;;;;;;;5074447;28;20210;-91
2023/05/08 05:00:40;;;;;;;6.13;4.43;;;;;;;;;;5074960;28;20228;-90
2023/05/08 05:03:09;;;;;;;5.03;3.27;;;;;;;;;;5075621;28;20205;-91
2023/05/08 05:05:38;;;;;;;7.00;6.17;;;;;;;;;;5075635;28;20220;-91
2023/05/08 05:08:06;;;;;;;26.93;6.17;;;;;;;;;;5075651;28;20208;-90
2023/05/08 05:10:35;;;;;;;30.97;8.90;;;;;;;;;;5075420;28;20199;-90
2023/05/08 05:13:04;;;;;;;12.07;7.00;;;;;;;;;;5073848;28;20207;-90
2023/05/08 05:15:32;;;;;;;1.30;1.30;;;;;;;;;;5073359;28;20198;-90
2023/05/08 05:18:02;;;;;;;72.03;13.57;;;;;;;;;;5073062;28;20210;-90
2023/05/08 05:20:31;;;;;;;23.57;8.27;;;;;;;;;;5072934;28;20229;-90
2023/05/08 05:23:02;;;;;;;2.57;2.33;;;;;;;;;;5073122;28;20198;-90
2023/05/08 05:25:31;;;;;;;9.17;7.60;;;;;;;;;;5072994;28;20217;-90
2023/05/08 05:28:00;;;;;;;62.17;17.80;;;;;;;;;;5072502;28;20245;-90
2023/05/08 05:30:37;;;;;;;9.17;8.30;;;;;;;;;;5072450;28;20206;-89
2023/05/08 05:33:07;;;;;;;35.20;11.07;;;;;;;;;;5072639;28;20197;-90
2023/05/08 05:35:39;;;;;;;4.10;3.87;;;;;;;;;;5072274;28;20297;-90
2023/05/08 05:38:12;;;;;;;45.23;12.10;;;;;;;;;;5071928;28;20203;-90
2023/05/08 05:40:41;;;;;;;58.90;14.70;;;;;;;;;;5072968;28;20203;-90
2023/05/08 05:43:11;;;;;;;234.53;24.23;;;;;;;;;;5072378;28;20199;-89
2023/05/08 05:45:41;;;;;;;15.57;6.47;;;;;;;;;;5072410;28;20207;-90
2023/05/08 05:48:11;;;;;;;2.63;2.47;;;;;;;;;;5072790;28;20202;-90
2023/05/08 05:50:40;;;;;;;5.07;4.67;;;;;;;;;;5072422;28;20213;-90
2023/05/08 05:53:09;;;;;;;2.03;1.93;;;;;;;;;;5072209;28;20222;-89
2023/05/08 05:55:37;;;;;;;1.10;1.10;;;;;;;;;;5072114;28;20298;-90
2023/05/08 05:58:06;;;;;;;90.07;26.03;;;;;;;;;;5072330;28;20206;-88
2023/05/08 06:00:34;;;;;;;10.60;9.57;;;;;;;;;;5072299;28;20200;-89
2023/05/08 06:03:03;;;;;;;26.50;13.03;;;;;;;;;;5072148;28;20264;-90
2023/05/08 06:05:33;;;;;;;3.47;3.27;;;;;;;;;;5072295;28;20234;-89
2023/05/08 06:08:02;;;;;;;2.87;2.77;;;;;;;;;;5072242;28;20200;-90
2023/05/08 06:10:30;;;;;;;8.10;5.20;;;;;;;;;;5072169;28;20226;-89
2023/05/08 06:13:02;;;;;;;21.03;13.53;;;;;;;;;;5071817;28;20213;-89
2023/05/08 06:15:31;;;;;;;18.20;12.33;;;;;;;;;;5072118;28;20305;-90
2023/05/08 06:17:59;;;;;;;12.37;10.53;;;;;;;;;;5071831;28;20200;-89
2023/05/08 06:20:28;;;;;;;9.50;8.57;;;;;;;;;;5072335;28;20208;-89
2023/05/08 06:22:58;;;;;;;10.03;5.17;;;;;;;;;;5071495;28;20203;-84
2023/05/08 06:25:27;;;;;;;7.17;6.57;;;;;;;;;;5072072;28;20204;-89
2023/05/08 06:27:55;;;;;;;9.53;8.57;;;;;;;;;;5072050;28;20229;-89
2023/05/08 06:30:28;;;;;;;13.67;8.60;;;;;;;;;;5071276;28;20264;-87
2023/05/08 06:32:56;;;;;;;9.47;8.07;;;;;;;;;;5071589;28;20276;-87
2023/05/08 06:35:26;;;;;;;5.53;4.83;;;;;;;;;;5071588;28;20215;-87
2023/05/08 06:37:55;;;;;;;2.50;2.30;;;;;;;;;;5071357;28;20209;-88
2023/05/08 06:40:27;;;;;;;13.30;9.50;;;;;;;;;;5071955;28;20297;-89
2023/05/08 06:42:56;;;;;;;38.30;19.70;;;;;;;;;;5072003;28;20231;-88
2023/05/08 06:45:26;;;;;;;1.53;1.53;;;;;;;;;;5071539;28;20208;-88
2023/05/08 06:47:55;;;;;;;15.23;9.30;;;;;;;;;;5071567;28;20196;-88
2023/05/08 06:50:28;;;;;;;3.13;2.93;;;;;;;;;;5075521;28;20224;-88
2023/05/08 06:52:58;;;;;;;4.27;4.00;;;;;;;;;;5075386;28;20209;-88
2023/05/08 06:55:29;;;;;;;6.90;5.70;;;;;;;;;;5075055;28;20221;-90
2023/05/08 06:57:58;;;;;;;9.93;9.10;;;;;;;;;;5075433;28;20254;-88
2023/05/08 07:00:29;;;;;;;2.87;2.77;;;;;;;;;;5075711;28;20197;-87
2023/05/08 07:03:00;;;;;;;40.00;23.67;;;;;;;;;;5075093;28;20202;-89
2023/05/08 07:05:31;;;;;;;7.00;6.57;;;;;;;;;;5075668;28;20194;-88
2023/05/08 07:08:00;;;;;;;7.33;6.57;;;;;;;;;;5075615;28;20248;-89
2023/05/08 07:10:30;;;;;;;13.30;10.07;;;;;;;;;;5075743;28;20232;-90
2023/05/08 07:12:59;;;;;;;28.80;12.77;;;;;;;;;;5076104;28;20225;-89
2023/05/08 07:15:28;;;;;;;1.27;1.27;;;;;;;;;;5076080;28;20202;-90
2023/05/08 07:17:57;;;;;;;8.20;7.33;;;;;;;;;;5074801;28;20194;-90
2023/05/08 07:20:26;;;;;;;0.80;0.80;;;;;;;;;;5075660;28;20194;-89
2023/05/08 07:22:55;;;;;;;40.00;26.70;;;;;;;;;;5075461;28;20223;-89
2023/05/08 07:25:23;;;;;;;66.23;41.27;;;;;;;;;;5075325;28;20197;-90
2023/05/08 07:27:56;;;;;;;28.17;15.73;;;;;;;;;;5075271;28;20232;-90
2023/05/08 07:30:28;;;;;;;10.67;9.57;;;;;;;;;;5074981;28;20283;-90
2023/05/08 07:32:57;;;;;;;45.60;28.43;;;;;;;;;;5075011;28;20207;-89
2023/05/08 07:35:28;;;;;;;10.77;9.73;;;;;;;;;;5075125;28;20244;-90
2023/05/08 07:37:57;;;;;;;32.10;15.43;;;;;;;;;;5074877;28;20259;-90
2023/05/08 07:40:26;;;;;;;84.27;50.13;;;;;;;;;;5074656;28;20221;-89
2023/05/08 07:42:54;;;;;;;35.70;21.57;;;;;;;;;;5074627;28;20215;-90
2023/05/08 07:45:25;;;;;;;56.80;32.87;;;;;;;;;;5074970;28;20190;-89
2023/05/08 07:47:56;;;;;;;33.97;16.87;;;;;;;;;;5074295;28;20228;-89
2023/05/08 07:50:31;;;;;;;59.97;36.67;;;;;;;;;;5074504;28;20226;-89
2023/05/08 07:53:02;;;;;;;16.07;9.07;;;;;;;;;;5074622;28;20196;-89
2023/05/08 07:55:35;;;;;;;49.47;24.50;;;;;;;;;;5074713;28;20192;-90
2023/05/08 07:58:06;;;;;;;60.37;30.00;;;;;;;;;;5074323;28;20212;-89
2023/05/08 08:00:36;;;;;;;68.23;37.43;;;;;;;;;;5073997;28;20209;-89
2023/05/08 08:03:05;;;;;;;24.17;9.53;;;;;;;;;;5074240;28;20196;-86
2023/05/08 08:05:34;;;;;;;24.27;15.27;;;;;;;;;;5073521;28;20218;-86
2023/05/08 08:08:04;;;;;;;7.37;6.67;;;;;;;;;;5074407;28;20197;-90
2023/05/08 08:10:46;;;;;;;39.57;19.83;;;;;;;;;;5074640;28;20224;-90
2023/05/08 08:13:17;;;;;;;17.60;12.50;;;;;;;;;;5074260;28;20197;-90
2023/05/08 08:15:47;;;;;;;75.03;38.70;;;;;;;;;;5074796;28;20248;-90
2023/05/08 08:18:16;;;;;;;79.50;39.80;;;;;;;;;;5074151;28;20198;-89
2023/05/08 08:20:45;;;;;;;71.13;35.37;;;;;;;;;;5074207;28;20292;-89
2023/05/08 08:23:13;;;;;;;44.70;23.83;;;;;;;;;;5074276;28;20213;-89
2023/05/08 08:25:42;;;;;;;17.77;8.67;;;;;;;;;;5074311;28;20282;-90
2023/05/08 08:28:11;;;;;;;78.30;38.40;;;;;;;;;;5073910;28;20253;-89
2023/05/08 08:30:41;;;;;;;15.90;10.83;;;;;;;;;;5073908;28;20217;-90
2023/05/08 08:33:11;;;;;;;89.43;49.43;;;;;;;;;;5074049;28;20205;-89
2023/05/08 08:35:40;;;;;;;65.97;34.97;;;;;;;;;;5073199;28;20204;-89
2023/05/08 08:38:09;;;;;;;42.30;24.10;;;;;;;;;;5073555;28;20248;-88
2023/05/08 08:40:40;;;;;;;93.17;42.23;;;;;;;;;;5074030;28;20296;-89
2023/05/08 08:43:09;;;;;;;69.50;29.30;;;;;;;;;;5073964;28;20201;-88
2023/05/08 08:45:38;;;;;;;53.07;25.43;;;;;;;;;;5073562;28;20208;-89
2023/05/08 08:48:11;;;;;;;90.87;44.20;;;;;;;;;;5073949;28;20190;-90
2023/05/08 08:50:43;;;;;;;77.70;32.87;;;;;;;;;;5073271;28;20214;-89
2023/05/08 08:53:17;;;;;;;55.33;25.33;;;;;;;;;;5073551;28;20208;-90
2023/05/08 08:55:48;;;;;;;52.80;20.90;;;;;;;;;;5073484;28;20216;-89
2023/05/08 08:58:27;;;;;;;55.67;28.27;;;;;;;;;;5074166;28;20197;-89
2023/05/08 09:01:03;;;;;;;56.10;29.23;;;;;;;;;;5072679;28;20182;-87
2023/05/08 09:03:34;;;;;;;3.17;3.00;;;;;;;;;;5058530;28;20210;-86
2023/05/08 09:06:05;;;;;;;8.80;5.47;;;;;;;;;;5053077;28;20206;-84
2023/05/08 09:08:34;;;;;;;73.23;37.77;;;;;;;;;;5052182;28;20228;-84
2023/05/08 09:11:03;;;;;;;68.83;31.13;;;;;;;;;;5052425;28;20222;-84
2023/05/08 09:13:31;;;;;;;28.40;13.13;;;;;;;;;;5058423;28;20234;-84
2023/05/08 09:16:00;;;;;;;29.07;14.10;;;;;;;;;;5065028;28;20259;-84
2023/05/08 09:18:29;;;;;;;47.00;23.23;;;;;;;;;;5069534;28;20207;-84
2023/05/08 09:20:59;;;;;;;60.07;30.53;;;;;;;;;;5062477;28;20195;-84
2023/05/08 09:23:29;;;;;;;23.67;14.93;;;;;;;;;;5060357;28;20216;-85
2023/05/08 09:25:58;;;;;;;39.37;20.23;;;;;;;;;;5065485;28;20198;-85
2023/05/08 09:28:26;;;;;;;12.10;9.77;;;;;;;;;;5058660;28;20233;-84
2023/05/08 09:31:00;;;;;;;24.70;8.43;;;;;;;;;;5066282;28;20247;-84
2023/05/08 09:33:32;;;;;;;27.60;8.73;;;;;;;;;;5071793;28;20367;-84
2023/05/08 09:36:01;;;;;;;12.10;7.73;;;;;;;;;;5069480;28;20206;-83
2023/05/08 09:38:35;;;;;;;14.93;10.40;;;;;;;;;;5067000;28;20196;-85
2023/05/08 09:41:08;;;;;;;40.83;18.27;;;;;;;;;;5063338;28;20203;-85
2023/05/08 09:43:45;;;;;;;24.43;13.23;;;;;;;;;;5063606;28;20250;-85
2023/05/08 09:46:39;;;;;;;7.87;7.17;;;;;;;;;;5054017;28;20202;-84
2023/05/08 09:49:17;;;;;;;27.93;12.40;;;;;;;;;;5061937;28;20209;-84
2023/05/08 09:51:52;;;;;;;14.93;10.83;;;;;;;;;;5071545;28;20228;-83
2023/05/08 09:54:23;;;;;;;3.63;3.33;;;;;;;;;;5070385;28;20206;-85
2023/05/08 09:56:54;;;;;;;6.60;4.97;;;;;;;;;;5068942;28;20292;-85
2023/05/08 09:59:27;;;;;;;5.13;3.03;;;;;;;;;;5070280;28;20201;-85
2023/05/08 10:01:58;;;;;;;30.87;14.63;;;;;;;;;;5070880;28;20207;-85
2023/05/08 10:04:33;;;;;;;17.40;8.20;;;;;;;;;;5070834;28;20211;-85
2023/05/08 10:07:04;;;;;;;6.33;5.07;;;;;;;;;;5070433;28;20217;-84
2023/05/08 10:09:35;;;;;;;19.07;10.47;;;;;;;;;;5056731;28;20202;-85
2023/05/08 10:12:17;;;;;;;9.27;7.23;;;;;;;;;;5068092;28;20213;-85
2023/05/08 10:14:46;;;;;;;5.47;4.73;;;;;;;;;;5067949;28;20238;-85
2023/05/08 10:17:17;;;;;;;20.07;10.70;;;;;;;;;;5070721;28;20289;-85
2023/05/08 10:19:46;;;;;;;19.57;8.20;;;;;;;;;;5070518;28;20257;-85
2023/05/08 10:22:16;;;;;;;12.10;6.50;;;;;;;;;;5063642;28;20222;-84
2023/05/08 10:24:53;;;;;;;6.43;3.57;;;;;;;;;;5061156;28;20209;-85
2023/05/08 10:27:26;;;;;;;24.37;11.97;;;;;;;;;;5070625;28;20225;-84
2023/05/08 10:29:56;;;;;;;12.80;8.03;;;;;;;;;;5070752;28;20210;-85
2023/05/08 10:32:26;;;;;;;12.97;7.63;;;;;;;;;;5064235;28;20237;-84
2023/05/08 10:34:59;;;;;;;12.17;5.87;;;;;;;;;;5059831;28;20195;-85
2023/05/08 10:37:30;;;;;;;5.97;4.23;;;;;;;;;;5066701;28;20216;-84
2023/05/08 10:40:01;;;;;;;24.13;14.43;;;;;;;;;;5062054;28;20205;-85
2023/05/08 10:42:30;;;;;;;5.97;5.47;;;;;;;;;;5065923;28;20207;-84
2023/05/08 10:44:59;;;;;;;7.17;4.87;;;;;;;;;;5070229;28;20236;-84
2023/05/08 10:47:32;;;;;;;6.20;5.47;;;;;;;;;;5059308;28;20227;-84
2023/05/08 10:50:05;;;;;;;10.43;6.77;;;;;;;;;;5059346;28;20197;-85
2023/05/08 10:52:36;;;;;;;7.00;5.53;;;;;;;;;;5070103;28;20243;-85
2023/05/08 10:55:16;;;;;;;18.70;8.23;;;;;;;;;;5070357;28;20208;-85
2023/05/08 10:57:59;;;;;;;6.30;4.40;;;;;;;;;;5065133;28;20203;-84
2023/05/08 11:00:32;;;;;;;9.60;6.40;;;;;;;;;;5062378;28;20248;-85
2023/05/08 11:03:06;;;;;;;5.33;4.70;;;;;;;;;;5069688;28;20202;-85
2023/05/08 11:05:58;;;;;;;13.97;7.70;;;;;;;;;;5070076;28;20213;-86
2023/05/08 11:08:28;;;;;;;11.67;5.60;;;;;;;;;;5071044;28;20209;-87
2023/05/08 11:11:05;;;;;;;15.27;9.83;;;;;;;;;;5070365;28;20205;-85
2023/05/08 11:13:35;;;;;;;9.83;5.63;;;;;;;;;;5069718;28;20230;-85
2023/05/08 11:16:07;;;;;;;14.83;8.87;;;;;;;;;;5069805;28;20217;-86
2023/05/08 11:18:37;;;;;;;10.43;7.30;;;;;;;;;;5069817;28;20240;-85
2023/05/08 11:21:21;;;;;;;6.07;4.97;;;;;;;;;;5069813;28;20236;-85
2023/05/08 11:23:56;;;;;;;8.77;4.60;;;;;;;;;;5070367;28;20289;-85
2023/05/08 11:26:41;;;;;;;8.63;5.67;;;;;;;;;;5070026;28;20210;-85
2023/05/08 11:29:17;;;;;;;23.10;10.90;;;;;;;;;;5069510;28;20259;-85
2023/05/08 11:31:53;;;;;;;10.57;7.47;;;;;;;;;;5069894;28;20238;-86
2023/05/08 11:34:40;;;;;;;19.30;9.93;;;;;;;;;;5069978;28;20237;-85
2023/05/08 11:37:11;;;;;;;21.27;11.40;;;;;;;;;;5072715;28;20197;-86
2023/05/08 11:39:39;;;;;;;16.73;9.00;;;;;;;;;;5056863;28;20204;-85
2023/05/08 11:42:28;;;;;;;6.63;4.13;;;;;;;;;;5072057;28;20199;-85
2023/05/08 11:45:04;;;;;;;9.57;5.97;;;;;;;;;;5071210;28;20217;-85
2023/05/08 11:47:36;;;;;;;5.30;3.93;;;;;;;;;;5069562;28;20226;-86
2023/05/08 11:50:07;;;;;;;21.67;7.20;;;;;;;;;;5060250;28;20205;-87
2023/05/08 11:52:36;;;;;;;15.00;8.20;;;;;;;;;;5066809;28;20226;-86
2023/05/08 11:55:05;;;;;;;15.17;8.77;;;;;;;;;;5073486;28;20216;-86
2023/05/08 11:57:44;;;;;;;25.23;12.87;;;;;;;;;;5073307;28;20243;-86
2023/05/08 12:00:14;;;;;;;7.50;6.60;;;;;;;;;;5073084;28;20202;-86
2023/05/08 12:02:45;;;;;;;10.87;4.80;;;;;;;;;;5073325;28;20231;-86
2023/05/08 12:05:14;;;;;;;18.00;9.37;;;;;;;;;;5072726;28;20229;-85
2023/05/08 12:07:45;;;;;;;6.80;6.13;;;;;;;;;;5072539;28;20206;-86
2023/05/08 12:10:14;;;;;;;9.37;5.80;;;;;;;;;;5073288;28;20202;-85
2023/05/08 12:12:45;;;;;;;11.30;7.80;;;;;;;;;;5072634;28;20217;-85
2023/05/08 12:15:16;;;;;;;18.00;11.37;;;;;;;;;;5072554;28;20288;-86
2023/05/08 12:17:44;;;;;;;24.27;15.60;;;;;;;;;;5072866;28;20216;-86
2023/05/08 12:20:14;;;;;;;10.70;5.37;;;;;;;;;;5071066;28;20338;-86
2023/05/08 12:22:44;;;;;;;16.13;10.90;;;;;;;;;;5071163;28;20202;-85
2023/05/08 12:25:12;;;;;;;15.30;9.23;;;;;;;;;;5072778;28;20220;-86
2023/05/08 12:27:52;;;;;;;11.60;7.43;;;;;;;;;;5073175;28;20230;-85
2023/05/08 12:30:23;;;;;;;14.27;8.63;;;;;;;;;;5072512;28;20266;-86
2023/05/08 12:32:51;;;;;;;9.27;7.87;;;;;;;;;;5072822;28;20223;-86
2023/05/08 12:35:22;;;;;;;11.03;6.93;;;;;;;;;;5073150;28;20209;-86
2023/05/08 12:37:52;;;;;;;9.93;6.53;;;;;;;;;;5073057;28;20286;-84
2023/05/08 12:40:26;;;;;;;16.03;8.07;;;;;;;;;;5072375;28;20298;-85
2023/05/08 12:42:54;;;;;;;13.93;7.70;;;;;;;;;;5073108;28;20237;-83
2023/05/08 12:45:25;;;;;;;10.53;6.50;;;;;;;;;;5066387;28;20210;-86
2023/05/08 12:47:55;;;;;;;12.07;7.53;;;;;;;;;;5072008;28;20219;-87
2023/05/08 12:50:24;;;;;;;18.47;9.63;;;;;;;;;;5063223;28;20213;-86
2023/05/08 12:52:53;;;;;;;10.13;4.30;;;;;;;;;;5069086;28;20253;-84
2023/05/08 12:55:26;;;;;;;8.80;6.50;;;;;;;;;;5051993;28;20199;-86
2023/05/08 12:58:02;;;;;;;8.90;7.50;;;;;;;;;;5061054;28;20232;-86
2023/05/08 13:00:39;;;;;;;25.93;12.50;;;;;;;;;;5072445;28;20288;-86
2023/05/08 13:03:08;;;;;;;20.50;14.53;;;;;;;;;;5071767;28;20244;-85
2023/05/08 13:05:37;;;;;;;8.10;5.23;;;;;;;;;;5072207;28;20233;-86
2023/05/08 13:08:08;;;;;;;8.17;6.57;;;;;;;;;;5071855;28;20195;-87
2023/05/08 13:10:46;;;;;;;11.27;6.83;;;;;;;;;;5061119;28;20229;-86
2023/05/08 13:13:15;;;;;;;13.47;9.67;;;;;;;;;;5070114;28;20225;-86
2023/05/08 13:15:46;;;;;;;30.77;15.17;;;;;;;;;;5071614;28;20209;-86
2023/05/08 13:18:15;;;;;;;14.30;8.90;;;;;;;;;;5068923;28;20211;-86
2023/05/08 13:20:45;;;;;;;12.30;8.60;;;;;;;;;;5065121;28;20216;-87
2023/05/08 13:23:13;;;;;;;18.77;11.40;;;;;;;;;;5072654;28;20212;-86
2023/05/08 13:25:42;;;;;;;11.03;8.33;;;;;;;;;;5071372;28;20205;-85
2023/05/08 13:28:13;;;;;;;27.00;14.70;;;;;;;;;;5071215;28;20217;-86
2023/05/08 13:30:42;;;;;;;21.43;11.60;;;;;;;;;;5071383;28;20315;-86
2023/05/08 13:33:12;;;;;;;12.37;8.53;;;;;;;;;;5070079;28;20213;-86
2023/05/08 13:35:41;;;;;;;14.30;9.60;;;;;;;;;;5071610;28;20218;-85
2023/05/08 13:38:11;;;;;;;22.40;13.40;;;;;;;;;;5071459;28;20194;-85
2023/05/08 13:40:40;;;;;;;26.87;16.53;;;;;;;;;;5059699;28;20200;-85
2023/05/08 13:43:09;;;;;;;19.77;8.63;;;;;;;;;;5065775;28;20201;-85
2023/05/08 13:45:44;;;;;;;15.87;9.40;;;;;;;;;;5071067;28;20250;-85
2023/05/08 13:48:23;;;;;;;30.93;20.20;;;;;;;;;;5071302;28;20197;-86
2023/05/08 13:50:52;;;;;;;20.63;11.10;;;;;;;;;;5078633;28;20236;-87
2023/05/08 13:53:20;;;;;;;11.80;8.47;;;;;;;;;;5075012;28;20220;-86
2023/05/08 13:55:49;;;;;;;28.77;14.67;;;;;;;;;;5058839;28;20225;-85
2023/05/08 13:58:19;;;;;;;15.10;7.90;;;;;;;;;;5070671;28;20225;-85
2023/05/08 14:00:48;;;;;;;16.50;7.97;;;;;;;;;;5071892;28;20206;-85
2023/05/08 14:03:17;;;;;;;30.70;19.17;;;;;;;;;;5071707;28;20232;-85
2023/05/08 14:05:50;;;;;;;25.57;14.60;;;;;;;;;;5050367;28;20197;-85
2023/05/08 14:08:18;;;;;;;38.77;18.83;;;;;;;;;;5065459;28;20208;-85
2023/05/08 14:10:48;;;;;;;32.10;16.47;;;;;;;;;;5070634;28;20211;-85
2023/05/08 14:13:17;;;;;;;29.73;17.07;;;;;;;;;;5070558;28;20216;-85
2023/05/08 14:15:46;;;;;;;29.40;13.87;;;;;;;;;;5058181;28;20195;-84
2023/05/08 14:18:21;;;;;;;29.87;14.80;;;;;;;;;;5063682;28;20221;-85
2023/05/08 14:20:58;;;;;;;21.23;12.23;;;;;;;;;;5057851;28;20206;-85
2023/05/08 14:23:29;;;;;;;32.10;14.43;;;;;;;;;;5067973;28;20292;-84
2023/05/08 14:25:59;;;;;;;61.53;40.07;;;;;;;;;;5070895;28;20256;-84
2023/05/08 14:28:29;;;;;;;26.67;16.27;;;;;;;;;;5070411;28;20228;-85
2023/05/08 14:30:58;;;;;;;27.73;14.53;;;;;;;;;;5068788;28;20210;-84
2023/05/08 14:33:27;;;;;;;20.77;12.13;;;;;;;;;;5062648;28;20268;-83
2023/05/08 14:35:55;;;;;;;19.83;11.20;;;;;;;;;;5070453;28;20363;-84
2023/05/08 14:38:28;;;;;;;16.70;10.07;;;;;;;;;;5071324;28;20228;-85
2023/05/08 14:40:56;;;;;;;24.77;14.13;;;;;;;;;;5071301;28;20204;-85
2023/05/08 14:43:25;;;;;;;17.73;12.40;;;;;;;;;;5070238;28;20227;-84
2023/05/08 14:45:54;;;;;;;31.70;15.13;;;;;;;;;;5071048;28;20186;-85
2023/05/08 14:48:23;;;;;;;25.87;16.77;;;;;;;;;;5059321;28;20201;-86
2023/05/08 14:50:51;;;;;;;28.63;14.73;;;;;;;;;;5055311;28;20195;-85
2023/05/08 14:53:20;;;;;;;22.03;15.00;;;;;;;;;;5058460;28;20215;-85